sensor_id;sensor_type;location;lat;lon;timestamp;pressure;altitude;pressure_sealevel;temperature;humidity
35121;BME280;21297;52.008;4.576;2023-05-23T00:01:28;49565.38;;;-143.47;100.00
35121;BME280;21297;52.008;4.576;2023-05-23T00:04:15;49563.41;;;-143.47;100.00
35121;BME280;21297;52.008;4.576;2023-05-23T00:07:03;49553.56;;;-143.47;100.00
35121;BME280;21297;52.008;4.576;2023-05-23T00:09:49;49555.53;;;-143.47;100.00
35121;BME280;21297;52.008;4.576;2023-05-23T00:12:35;49543.72;;;-143.47;100.00
35121;BME280;21297;52.008;4.576;2023-05-23T00:15:22;49541.75;;;-143.47;100.00
35121;BME280;21297;52.008;4.576;2023-05-23T00:18:08;49537.81;;;-143.47;100.00
35121;BME280;21297;52.008;4.576;2023-05-23T00:20:55;49535.88;;;-143.47;100.00
35121;BME280;21297;52.008;4.576;2023-05-23T00:23:42;49541.75;;;-143.47;100.00
35121;BME280;21297;52.008;4.576;2023-05-23T00:26:27;49516.19;;;-143.47;100.00
35121;BME280;21297;52.008;4.576;2023-05-23T00:29:16;49569.28;;;-143.47;100.00
35121;BME280;21297;52.008;4.576;2023-05-23T00:32:01;49539.78;;;-143.47;100.00
35121;BME280;21297;52.008;4.576;2023-05-23T00:34:47;49567.34;;;-143.47;100.00
35121;BME280;21297;52.008;4.576;2023-05-23T00:37:33;49533.91;;;-143.47;100.00
35121;BME280;21297;52.008;4.576;2023-05-23T00:40:19;49620.44;;;-143.47;100.00
35121;BME280;21297;52.008;4.576;2023-05-23T00:43:05;49579.13;;;-143.47;100.00
35121;BME280;21297;52.008;4.576;2023-05-23T00:45:50;49553.56;;;-143.47;100.00
35121;BME280;21297;52.008;4.576;2023-05-23T00:48:36;49579.13;;;-143.47;100.00
35121;BME280;21297;52.008;4.576;2023-05-23T00:51:23;49537.81;;;-143.47;100.00
35121;BME280;21297;52.008;4.576;2023-05-23T00:54:09;49535.88;;;-143.47;100.00
35121;BME280;21297;52.008;4.576;2023-05-23T00:56:56;49551.59;;;-143.47;100.00
35121;BME280;21297;52.008;4.576;2023-05-23T00:59:42;49563.41;;;-143.47;100.00
35121;BME280;21297;52.008;4.576;2023-05-23T01:02:31;49604.69;;;-143.47;100.00
35121;BME280;21297;52.008;4.576;2023-05-23T01:05:19;49539.78;;;-143.47;100.00
35121;BME280;21297;52.008;4.576;2023-05-23T01:08:06;49555.53;;;-143.47;100.00
35121;BME280;21297;52.008;4.576;2023-05-23T01:10:53;49541.75;;;-143.47;100.00
35121;BME280;21297;52.008;4.576;2023-05-23T01:13:43;49516.19;;;-143.47;100.00
35121;BME280;21297;52.008;4.576;2023-05-23T01:16:46;49541.75;;;-143.47;100.00
35121;BME280;21297;52.008;4.576;2023-05-23T01:19:50;49539.78;;;-143.47;100.00
35121;BME280;21297;52.008;4.576;2023-05-23T01:28:45;49524.06;;;-143.47;100.00
35121;BME280;21297;52.008;4.576;2023-05-23T01:31:33;49555.53;;;-143.47;100.00
35121;BME280;21297;52.008;4.576;2023-05-23T01:34:21;49543.72;;;-143.47;100.00
35121;BME280;21297;52.008;4.576;2023-05-23T01:37:10;49518.16;;;-143.47;100.00
35121;BME280;21297;52.008;4.576;2023-05-23T01:39:58;49484.72;;;-143.47;100.00
35121;BME280;21297;52.008;4.576;2023-05-23T01:42:44;49506.38;;;-143.47;100.00
35121;BME280;21297;52.008;4.576;2023-05-23T01:45:30;49490.63;;;-143.47;100.00
35121;BME280;21297;52.008;4.576;2023-05-23T01:48:17;49470.97;;;-143.47;100.00
35121;BME280;21297;52.008;4.576;2023-05-23T01:51:03;49496.53;;;-143.47;100.00
35121;BME280;21297;52.008;4.576;2023-05-23T01:53:50;49496.53;;;-143.47;100.00
35121;BME280;21297;52.008;4.576;2023-05-23T01:56:35;49447.38;;;-143.47;100.00
35121;BME280;21297;52.008;4.576;2023-05-23T01:59:21;49510.28;;;-143.47;100.00
35121;BME280;21297;52.008;4.576;2023-05-23T02:02:07;49480.78;;;-143.47;100.00
35121;BME280;21297;52.008;4.576;2023-05-23T02:04:53;49496.53;;;-143.47;100.00
35121;BME280;21297;52.008;4.576;2023-05-23T02:07:38;49496.53;;;-143.47;100.00
35121;BME280;21297;52.008;4.576;2023-05-23T02:10:24;49488.66;;;-143.47;100.00
35121;BME280;21297;52.008;4.576;2023-05-23T02:13:10;49480.78;;;-143.47;100.00
35121;BME280;21297;52.008;4.576;2023-05-23T02:15:56;49484.72;;;-143.47;100.00
35121;BME280;21297;52.008;4.576;2023-05-23T02:18:41;49492.59;;;-143.47;100.00
35121;BME280;21297;52.008;4.576;2023-05-23T02:21:30;49441.47;;;-143.47;100.00
35121;BME280;21297;52.008;4.576;2023-05-23T02:24:16;49480.78;;;-143.47;100.00
35121;BME280;21297;52.008;4.576;2023-05-23T02:27:02;49484.72;;;-143.47;100.00
35121;BME280;21297;52.008;4.576;2023-05-23T02:29:47;49439.50;;;-143.47;100.00
35121;BME280;21297;52.008;4.576;2023-05-23T02:32:33;49459.16;;;-143.47;100.00
35121;BME280;21297;52.008;4.576;2023-05-23T02:35:19;49472.94;;;-143.47;100.00
35121;BME280;21297;52.008;4.576;2023-05-23T02:38:05;49484.72;;;-143.47;100.00
35121;BME280;21297;52.008;4.576;2023-05-23T02:40:51;49453.25;;;-143.47;100.00
35121;BME280;21297;52.008;4.576;2023-05-23T02:43:37;49425.72;;;-143.47;100.00
35121;BME280;21297;52.008;4.576;2023-05-23T02:46:23;49439.50;;;-143.47;100.00
35121;BME280;21297;52.008;4.576;2023-05-23T02:49:09;49467.03;;;-143.47;100.00
35121;BME280;21297;52.008;4.576;2023-05-23T02:51:55;49431.63;;;-143.47;100.00
35121;BME280;21297;52.008;4.576;2023-05-23T02:54:40;49417.88;;;-143.47;100.00
35121;BME280;21297;52.008;4.576;2023-05-23T02:57:26;49411.97;;;-143.47;100.00
35121;BME280;21297;52.008;4.576;2023-05-23T03:00:12;49410.00;;;-143.47;100.00
35121;BME280;21297;52.008;4.576;2023-05-23T03:02:58;49419.81;;;-143.47;100.00
35121;BME280;21297;52.008;4.576;2023-05-23T03:05:43;49404.09;;;-143.47;100.00
35121;BME280;21297;52.008;4.576;2023-05-23T03:08:29;49386.41;;;-143.47;100.00
35121;BME280;21297;52.008;4.576;2023-05-23T03:11:15;49394.25;;;-143.47;100.00
35121;BME280;21297;52.008;4.576;2023-05-23T03:14:00;49413.94;;;-143.47;100.00
35121;BME280;21297;52.008;4.576;2023-05-23T03:16:46;49398.19;;;-143.47;100.00
35121;BME280;21297;52.008;4.576;2023-05-23T03:19:32;49429.66;;;-143.47;100.00
35121;BME280;21297;52.008;4.576;2023-05-23T03:22:17;49386.41;;;-143.47;100.00
35121;BME280;21297;52.008;4.576;2023-05-23T03:25:03;49415.91;;;-143.47;100.00
35121;BME280;21297;52.008;4.576;2023-05-23T03:27:49;49435.56;;;-143.47;100.00
35121;BME280;21297;52.008;4.576;2023-05-23T03:30:35;49411.97;;;-143.47;100.00
35121;BME280;21297;52.008;4.576;2023-05-23T03:33:20;49396.22;;;-143.47;100.00
35121;BME280;21297;52.008;4.576;2023-05-23T03:36:06;49376.56;;;-143.47;100.00
35121;BME280;21297;52.008;4.576;2023-05-23T03:38:52;49366.72;;;-143.47;100.00
35121;BME280;21297;52.008;4.576;2023-05-23T03:41:37;49366.72;;;-143.47;100.00
35121;BME280;21297;52.008;4.576;2023-05-23T03:44:23;49360.81;;;-143.47;100.00
35121;BME280;21297;52.008;4.576;2023-05-23T03:47:08;49404.09;;;-143.47;100.00
35121;BME280;21297;52.008;4.576;2023-05-23T03:49:54;49378.53;;;-143.47;100.00
35121;BME280;21297;52.008;4.576;2023-05-23T03:52:40;49325.44;;;-143.47;100.00
35121;BME280;21297;52.008;4.576;2023-05-23T03:55:25;49305.75;;;-143.47;100.00
35121;BME280;21297;52.008;4.576;2023-05-23T03:58:11;49331.31;;;-143.47;99.12
35121;BME280;21297;52.008;4.576;2023-05-23T04:00:57;49319.53;;;-143.47;97.30
35121;BME280;21297;52.008;4.576;2023-05-23T04:03:42;49319.53;;;-143.47;97.22
35121;BME280;21297;52.008;4.576;2023-05-23T04:06:28;49341.16;;;-143.47;97.59
35121;BME280;21297;52.008;4.576;2023-05-23T04:09:15;49325.44;;;-143.47;97.43
35121;BME280;21297;52.008;4.576;2023-05-23T04:12:01;49335.25;;;-143.47;93.42
35121;BME280;21297;52.008;4.576;2023-05-23T04:14:47;49335.25;;;-143.47;90.87
35121;BME280;21297;52.008;4.576;2023-05-23T04:17:32;49315.59;;;-143.47;90.43
35121;BME280;21297;52.008;4.576;2023-05-23T04:20:18;49286.09;;;-143.47;91.63
35121;BME280;21297;52.008;4.576;2023-05-23T04:23:04;49329.38;;;-143.47;93.33
35121;BME280;21297;52.008;4.576;2023-05-23T04:25:49;49284.13;;;-143.47;92.33
35121;BME280;21297;52.008;4.576;2023-05-23T04:28:35;49272.34;;;-143.47;91.89
35121;BME280;21297;52.008;4.576;2023-05-23T04:31:22;49303.78;;;-143.47;90.83
35121;BME280;21297;52.008;4.576;2023-05-23T04:34:07;49295.94;;;-143.47;90.34
35121;BME280;21297;52.008;4.576;2023-05-23T04:36:54;49278.22;;;-143.47;91.49
35121;BME280;21297;52.008;4.576;2023-05-23T04:39:39;49331.31;;;-143.47;92.23
35121;BME280;21297;52.008;4.576;2023-05-23T04:42:25;49309.69;;;-143.47;93.28
35121;BME280;21297;52.008;4.576;2023-05-23T04:45:11;49288.06;;;-143.47;90.72
35121;BME280;21297;52.008;4.576;2023-05-23T04:47:57;49290.03;;;-143.47;88.74
35121;BME280;21297;52.008;4.576;2023-05-23T04:50:43;49288.06;;;-143.47;89.01
35121;BME280;21297;52.008;4.576;2023-05-23T04:53:32;49321.50;;;-143.47;90.01
35121;BME280;21297;52.008;4.576;2023-05-23T04:56:17;49299.88;;;-143.47;90.87
35121;BME280;21297;52.008;4.576;2023-05-23T04:59:05;49315.59;;;-143.47;91.16
35121;BME280;21297;52.008;4.576;2023-05-23T05:01:53;49288.06;;;-143.47;91.10
35121;BME280;21297;52.008;4.576;2023-05-23T05:04:38;49297.91;;;-143.47;89.71
35121;BME280;21297;52.008;4.576;2023-05-23T05:07:24;49264.47;;;-143.47;90.52
35121;BME280;21297;52.008;4.576;2023-05-23T05:10:10;49282.16;;;-143.47;89.52
35121;BME280;21297;52.008;4.576;2023-05-23T05:13:01;49292.00;;;-143.47;88.79
35121;BME280;21297;52.008;4.576;2023-05-23T05:15:46;49280.19;;;-143.47;88.87
35121;BME280;21297;52.008;4.576;2023-05-23T05:18:32;49234.97;;;-143.47;85.71
35121;BME280;21297;52.008;4.576;2023-05-23T05:21:18;49234.97;;;-143.47;85.16
35121;BME280;21297;52.008;4.576;2023-05-23T05:24:03;49227.09;;;-143.47;85.21
35121;BME280;21297;52.008;4.576;2023-05-23T05:26:49;49236.94;;;-143.47;84.34
35121;BME280;21297;52.008;4.576;2023-05-23T05:29:35;49231.03;;;-143.47;86.02
35121;BME280;21297;52.008;4.576;2023-05-23T05:32:21;49246.75;;;-143.47;86.22
35121;BME280;21297;52.008;4.576;2023-05-23T05:35:07;49264.47;;;-143.47;86.22
35121;BME280;21297;52.008;4.576;2023-05-23T05:37:53;49234.97;;;-143.47;87.13
35121;BME280;21297;52.008;4.576;2023-05-23T05:40:38;49299.88;;;-143.47;86.20
35121;BME280;21297;52.008;4.576;2023-05-23T05:43:27;49264.47;;;-143.47;87.70
35121;BME280;21297;52.008;4.576;2023-05-23T05:46:12;49258.56;;;-143.47;87.84
35121;BME280;21297;52.008;4.576;2023-05-23T05:48:58;49295.94;;;-143.47;89.34
35121;BME280;21297;52.008;4.576;2023-05-23T05:51:44;49280.19;;;-143.47;90.47
35121;BME280;21297;52.008;4.576;2023-05-23T05:54:29;49299.88;;;-143.47;90.78
35121;BME280;21297;52.008;4.576;2023-05-23T05:57:15;49288.06;;;-143.47;90.36
35121;BME280;21297;52.008;4.576;2023-05-23T06:00:01;49315.59;;;-143.47;92.04
35121;BME280;21297;52.008;4.576;2023-05-23T06:02:46;49319.53;;;-143.47;91.52
35121;BME280;21297;52.008;4.576;2023-05-23T06:05:32;49244.81;;;-143.47;92.16
35121;BME280;21297;52.008;4.576;2023-05-23T06:08:18;49248.72;;;-143.47;92.42
35121;BME280;21297;52.008;4.576;2023-05-23T06:11:03;49292.00;;;-143.47;93.38
35121;BME280;21297;52.008;4.576;2023-05-23T06:13:49;49290.03;;;-143.47;94.44
35121;BME280;21297;52.008;4.576;2023-05-23T06:16:35;49315.59;;;-143.47;95.97
35121;BME280;21297;52.008;4.576;2023-05-23T06:19:21;49286.09;;;-143.47;97.43
35121;BME280;21297;52.008;4.576;2023-05-23T06:22:06;49252.66;;;-143.47;99.37
35121;BME280;21297;52.008;4.576;2023-05-23T06:24:52;49292.00;;;-143.47;97.66
35121;BME280;21297;52.008;4.576;2023-05-23T06:27:37;49264.47;;;-143.47;97.99
35121;BME280;21297;52.008;4.576;2023-05-23T06:30:23;49270.38;;;-143.47;94.53
35121;BME280;21297;52.008;4.576;2023-05-23T06:33:09;49292.00;;;-143.47;93.85
35121;BME280;21297;52.008;4.576;2023-05-23T06:35:56;49292.00;;;-143.47;96.20
35121;BME280;21297;52.008;4.576;2023-05-23T06:38:41;49292.00;;;-143.47;96.33
35121;BME280;21297;52.008;4.576;2023-05-23T06:41:27;49236.94;;;-143.47;100.00
35121;BME280;21297;52.008;4.576;2023-05-23T06:44:13;49233.00;;;-143.47;99.11
35121;BME280;21297;52.008;4.576;2023-05-23T06:46:59;49242.84;;;-143.47;98.38
35121;BME280;21297;52.008;4.576;2023-05-23T06:49:45;49274.31;;;-143.47;97.04
35121;BME280;21297;52.008;4.576;2023-05-23T06:52:30;49290.03;;;-143.47;90.81
35121;BME280;21297;52.008;4.576;2023-05-23T06:55:16;49280.19;;;-143.47;86.17
35121;BME280;21297;52.008;4.576;2023-05-23T06:58:03;49345.09;;;-143.47;81.85
35121;BME280;21297;52.008;4.576;2023-05-23T07:00:49;49413.94;;;-143.47;79.43
35121;BME280;21297;52.008;4.576;2023-05-23T07:03:35;49386.41;;;-143.47;79.18
35121;BME280;21297;52.008;4.576;2023-05-23T07:06:22;49404.09;;;-143.47;77.34
35121;BME280;21297;52.008;4.576;2023-05-23T07:09:08;49362.78;;;-143.47;79.82
35121;BME280;21297;52.008;4.576;2023-05-23T07:11:56;49358.88;;;-143.47;77.37
35121;BME280;21297;52.008;4.576;2023-05-23T07:14:42;49339.19;;;-143.47;77.79
35121;BME280;21297;52.008;4.576;2023-05-23T07:17:27;49319.53;;;-143.47;77.58
35121;BME280;21297;52.008;4.576;2023-05-23T07:20:14;49311.66;;;-143.47;76.57
35121;BME280;21297;52.008;4.576;2023-05-23T07:23:00;49374.59;;;-143.47;75.48
35121;BME280;21297;52.008;4.576;2023-05-23T07:25:46;49349.03;;;-143.47;73.18
35121;BME280;21297;52.008;4.576;2023-05-23T07:28:31;49360.81;;;-143.47;72.31
35121;BME280;21297;52.008;4.576;2023-05-23T07:31:17;49366.72;;;-143.47;71.20
35121;BME280;21297;52.008;4.576;2023-05-23T07:34:03;49394.25;;;-143.47;71.51
35121;BME280;21297;52.008;4.576;2023-05-23T07:36:48;49406.06;;;-143.47;69.19
35121;BME280;21297;52.008;4.576;2023-05-23T07:39:34;49406.06;;;-143.47;69.20
35121;BME280;21297;52.008;4.576;2023-05-23T07:42:20;49404.09;;;-143.47;70.81
35121;BME280;21297;52.008;4.576;2023-05-23T07:45:06;49484.72;;;-143.47;69.28
35121;BME280;21297;52.008;4.576;2023-05-23T07:47:52;49437.53;;;-143.47;68.91
35121;BME280;21297;52.008;4.576;2023-05-23T07:50:40;49459.16;;;-143.47;68.94
35121;BME280;21297;52.008;4.576;2023-05-23T07:53:26;49470.97;;;-143.47;69.50
35121;BME280;21297;52.008;4.576;2023-05-23T07:56:11;49406.06;;;-143.47;68.91
35121;BME280;21297;52.008;4.576;2023-05-23T07:58:57;49474.91;;;-143.47;68.98
35121;BME280;21297;52.008;4.576;2023-05-23T08:01:43;49520.13;;;-143.47;69.46
35121;BME280;21297;52.008;4.576;2023-05-23T08:04:29;49533.91;;;-143.47;68.04
35121;BME280;21297;52.008;4.576;2023-05-23T08:07:15;49478.81;;;-143.47;68.26
35121;BME280;21297;52.008;4.576;2023-05-23T08:10:01;49404.09;;;-143.47;69.95
35121;BME280;21297;52.008;4.576;2023-05-23T08:12:46;49445.41;;;-143.47;68.33
35121;BME280;21297;52.008;4.576;2023-05-23T08:15:32;49433.59;;;-143.47;69.30
35121;BME280;21297;52.008;4.576;2023-05-23T08:18:18;49522.09;;;-143.47;67.82
35121;BME280;21297;52.008;4.576;2023-05-23T08:21:03;49563.41;;;-143.47;66.57
35121;BME280;21297;52.008;4.576;2023-05-23T08:23:49;49567.34;;;-143.47;69.08
35121;BME280;21297;52.008;4.576;2023-05-23T08:26:35;49449.31;;;-143.47;69.31
35121;BME280;21297;52.008;4.576;2023-05-23T08:29:21;49453.25;;;-143.47;68.37
35121;BME280;21297;52.008;4.576;2023-05-23T08:32:07;49463.09;;;-143.47;69.08
35121;BME280;21297;52.008;4.576;2023-05-23T08:34:53;49502.44;;;-143.47;68.74
35121;BME280;21297;52.008;4.576;2023-05-23T08:37:39;49535.88;;;-143.47;65.22
35121;BME280;21297;52.008;4.576;2023-05-23T08:40:26;49482.75;;;-143.47;63.30
35121;BME280;21297;52.008;4.576;2023-05-23T08:43:15;49496.53;;;-143.47;65.38
35121;BME280;21297;52.008;4.576;2023-05-23T08:46:02;49541.75;;;-143.47;63.89
35121;BME280;21297;52.008;4.576;2023-05-23T08:48:53;49612.56;;;-143.47;63.85
35121;BME280;21297;52.008;4.576;2023-05-23T08:51:41;49649.94;;;-143.47;62.82
35121;BME280;21297;52.008;4.576;2023-05-23T08:54:27;49551.59;;;-143.47;62.06
35121;BME280;21297;52.008;4.576;2023-05-23T08:57:13;49500.47;;;-143.47;64.03
35121;BME280;21297;52.008;4.576;2023-05-23T08:59:59;49508.31;;;-143.47;65.71
35121;BME280;21297;52.008;4.576;2023-05-23T09:02:46;49529.97;;;-143.47;63.63
35121;BME280;21297;52.008;4.576;2023-05-23T09:05:31;49498.50;;;-143.47;63.81
35121;BME280;21297;52.008;4.576;2023-05-23T09:08:17;49522.09;;;-143.47;62.76
35121;BME280;21297;52.008;4.576;2023-05-23T09:11:04;49547.66;;;-143.47;62.84
35121;BME280;21297;52.008;4.576;2023-05-23T09:13:50;49553.56;;;-143.47;63.42
35121;BME280;21297;52.008;4.576;2023-05-23T09:16:36;49618.47;;;-143.47;64.88
35121;BME280;21297;52.008;4.576;2023-05-23T09:19:22;49590.94;;;-143.47;63.69
35121;BME280;21297;52.008;4.576;2023-05-23T09:22:07;49581.09;;;-143.47;64.40
35121;BME280;21297;52.008;4.576;2023-05-23T09:24:54;49547.66;;;-143.47;63.56
35121;BME280;21297;52.008;4.576;2023-05-23T09:27:41;49533.91;;;-143.47;64.21
35121;BME280;21297;52.008;4.576;2023-05-23T09:30:27;49533.91;;;-143.47;63.68
35121;BME280;21297;52.008;4.576;2023-05-23T09:33:13;49646.00;;;-143.47;62.26
35121;BME280;21297;52.008;4.576;2023-05-23T09:35:59;49618.47;;;-143.47;60.58
35121;BME280;21297;52.008;4.576;2023-05-23T09:38:46;49685.34;;;-143.47;62.51
35121;BME280;21297;52.008;4.576;2023-05-23T09:41:34;49608.63;;;-143.47;61.51
35121;BME280;21297;52.008;4.576;2023-05-23T09:44:21;49675.50;;;-143.47;61.67
35121;BME280;21297;52.008;4.576;2023-05-23T09:47:08;49608.63;;;-143.47;62.07
35121;BME280;21297;52.008;4.576;2023-05-23T09:49:54;49531.94;;;-143.47;63.97
35121;BME280;21297;52.008;4.576;2023-05-23T09:52:40;49551.59;;;-143.47;63.67
35121;BME280;21297;52.008;4.576;2023-05-23T09:55:26;49618.47;;;-143.47;62.44
35121;BME280;21297;52.008;4.576;2023-05-23T09:58:12;49663.69;;;-143.47;58.85
35121;BME280;21297;52.008;4.576;2023-05-23T10:00:59;49610.59;;;-143.47;58.81
35121;BME280;21297;52.008;4.576;2023-05-23T10:03:49;49767.94;;;-143.47;59.79
35121;BME280;21297;52.008;4.576;2023-05-23T10:06:49;49679.44;;;-143.47;58.04
35121;BME280;21297;52.008;4.576;2023-05-23T10:09:38;49703.03;;;-143.47;60.88
35121;BME280;21297;52.008;4.576;2023-05-23T10:15:17;49640.09;;;-143.47;60.72
35121;BME280;21297;52.008;4.576;2023-05-23T10:18:17;49600.75;;;-143.47;60.59
35121;BME280;21297;52.008;4.576;2023-05-23T10:21:09;49630.25;;;-143.47;60.32
35121;BME280;21297;52.008;4.576;2023-05-23T10:23:58;49596.84;;;-143.47;60.81
35121;BME280;21297;52.008;4.576;2023-05-23T10:26:44;49496.53;;;-143.47;61.42
35121;BME280;21297;52.008;4.576;2023-05-23T10:29:31;49529.97;;;-143.47;61.49
35121;BME280;21297;52.008;4.576;2023-05-23T10:32:18;49575.19;;;-143.47;60.15
35121;BME280;21297;52.008;4.576;2023-05-23T10:35:23;49675.50;;;-143.47;58.56
35121;BME280;21297;52.008;4.576;2023-05-23T10:41:27;49681.41;;;-143.47;57.53
35121;BME280;21297;52.008;4.576;2023-05-23T10:44:28;49638.13;;;-143.47;58.22
35121;BME280;21297;52.008;4.576;2023-05-23T10:47:25;49553.56;;;-143.47;58.71
35121;BME280;21297;52.008;4.576;2023-05-23T10:50:13;49496.53;;;-143.47;59.68
35121;BME280;21297;52.008;4.576;2023-05-23T10:53:03;49526.03;;;-143.47;58.29
35121;BME280;21297;52.008;4.576;2023-05-23T10:55:49;49539.78;;;-143.47;60.04
35121;BME280;21297;52.008;4.576;2023-05-23T10:58:37;49673.53;;;-143.47;56.58
35121;BME280;21297;52.008;4.576;2023-05-23T11:01:23;49539.78;;;-143.47;57.41
35121;BME280;21297;52.008;4.576;2023-05-23T11:04:10;49590.94;;;-143.47;58.03
35121;BME280;21297;52.008;4.576;2023-05-23T11:06:57;49594.88;;;-143.47;58.45
35121;BME280;21297;52.008;4.576;2023-05-23T11:10:09;49596.84;;;-143.47;59.74
35121;BME280;21297;52.008;4.576;2023-05-23T11:13:05;49653.88;;;-143.47;58.57
35121;BME280;21297;52.008;4.576;2023-05-23T11:15:50;49677.47;;;-143.47;57.25
35121;BME280;21297;52.008;4.576;2023-05-23T11:18:36;49724.66;;;-143.47;58.56
35121;BME280;21297;52.008;4.576;2023-05-23T11:21:23;49736.47;;;-143.47;56.70
35121;BME280;21297;52.008;4.576;2023-05-23T11:24:11;49760.06;;;-143.47;57.08
35121;BME280;21297;52.008;4.576;2023-05-23T11:26:57;49602.72;;;-143.47;57.64
35121;BME280;21297;52.008;4.576;2023-05-23T11:30:11;49600.75;;;-143.47;57.64
35121;BME280;21297;52.008;4.576;2023-05-23T11:32:58;49697.13;;;-143.47;56.46
35121;BME280;21297;52.008;4.576;2023-05-23T11:35:49;49673.53;;;-143.47;58.54
35121;BME280;21297;52.008;4.576;2023-05-23T11:38:37;49571.25;;;-143.47;57.87
35121;BME280;21297;52.008;4.576;2023-05-23T11:41:23;49626.34;;;-143.47;58.70
35121;BME280;21297;52.008;4.576;2023-05-23T11:44:12;49596.84;;;-143.47;56.89
35121;BME280;21297;52.008;4.576;2023-05-23T11:46:59;49579.13;;;-143.47;57.89
35121;BME280;21297;52.008;4.576;2023-05-23T11:49:46;49673.53;;;-143.47;58.54
35121;BME280;21297;52.008;4.576;2023-05-23T11:52:32;49722.72;;;-143.47;53.84
35121;BME280;21297;52.008;4.576;2023-05-23T11:55:19;49610.59;;;-143.47;56.89
35121;BME280;21297;52.008;4.576;2023-05-23T11:58:05;49543.72;;;-143.47;57.81
35121;BME280;21297;52.008;4.576;2023-05-23T12:00:51;49598.78;;;-143.47;58.00
35121;BME280;21297;52.008;4.576;2023-05-23T12:03:47;49675.50;;;-143.47;56.39
35121;BME280;21297;52.008;4.576;2023-05-23T12:06:33;49642.06;;;-143.47;55.71
35121;BME280;21297;52.008;4.576;2023-05-23T12:09:19;49598.78;;;-143.47;54.53
35121;BME280;21297;52.008;4.576;2023-05-23T12:12:05;49583.06;;;-143.47;56.03
35121;BME280;21297;52.008;4.576;2023-05-23T12:14:55;49528.00;;;-143.47;56.15
35121;BME280;21297;52.008;4.576;2023-05-23T12:17:44;49557.50;;;-143.47;56.94
35121;BME280;21297;52.008;4.576;2023-05-23T12:20:32;49632.22;;;-143.47;57.43
35121;BME280;21297;52.008;4.576;2023-05-23T12:23:21;49604.69;;;-143.47;57.34
35121;BME280;21297;52.008;4.576;2023-05-23T12:26:07;49657.81;;;-143.47;56.87
35121;BME280;21297;52.008;4.576;2023-05-23T12:28:56;49644.03;;;-143.47;57.15
35121;BME280;21297;52.008;4.576;2023-05-23T12:31:42;49649.94;;;-143.47;56.34
35121;BME280;21297;52.008;4.576;2023-05-23T12:34:28;49600.75;;;-143.47;57.68
35121;BME280;21297;52.008;4.576;2023-05-23T12:37:13;49553.56;;;-143.47;56.78
35121;BME280;21297;52.008;4.576;2023-05-23T12:40:29;49649.94;;;-143.47;58.65
35121;BME280;21297;52.008;4.576;2023-05-23T12:43:15;49636.16;;;-143.47;56.28
35121;BME280;21297;52.008;4.576;2023-05-23T12:46:01;49610.59;;;-143.47;57.59
35121;BME280;21297;52.008;4.576;2023-05-23T12:48:46;49581.09;;;-143.47;56.46
35121;BME280;21297;52.008;4.576;2023-05-23T12:51:32;49689.28;;;-143.47;55.60
35121;BME280;21297;52.008;4.576;2023-05-23T12:54:18;49677.47;;;-143.47;54.29
35121;BME280;21297;52.008;4.576;2023-05-23T12:57:09;49634.19;;;-143.47;56.08
35121;BME280;21297;52.008;4.576;2023-05-23T12:59:55;49657.81;;;-143.47;57.29
35121;BME280;21297;52.008;4.576;2023-05-23T13:02:41;49712.88;;;-143.47;55.06
35121;BME280;21297;52.008;4.576;2023-05-23T13:05:27;49673.53;;;-143.47;54.74
35121;BME280;21297;52.008;4.576;2023-05-23T13:08:12;49783.69;;;-143.47;54.86
35121;BME280;21297;52.008;4.576;2023-05-23T13:10:58;49518.16;;;-143.47;56.75
35121;BME280;21297;52.008;4.576;2023-05-23T13:13:45;49618.47;;;-143.47;55.51
35121;BME280;21297;52.008;4.576;2023-05-23T13:16:31;49669.59;;;-143.47;54.15
35121;BME280;21297;52.008;4.576;2023-05-23T13:19:17;49699.09;;;-143.47;54.85
35121;BME280;21297;52.008;4.576;2023-05-23T13:22:05;49669.59;;;-143.47;54.26
35121;BME280;21297;52.008;4.576;2023-05-23T13:24:51;49634.19;;;-143.47;54.54
35121;BME280;21297;52.008;4.576;2023-05-23T13:27:37;49634.19;;;-143.47;55.88
35121;BME280;21297;52.008;4.576;2023-05-23T13:30:23;49587.00;;;-143.47;57.65
35121;BME280;21297;52.008;4.576;2023-05-23T13:33:11;49687.31;;;-143.47;56.08
35121;BME280;21297;52.008;4.576;2023-05-23T13:35:58;49632.22;;;-143.47;56.24
35121;BME280;21297;52.008;4.576;2023-05-23T13:38:44;49649.94;;;-143.47;55.22
35121;BME280;21297;52.008;4.576;2023-05-23T13:41:31;49547.66;;;-143.47;57.42
35121;BME280;21297;52.008;4.576;2023-05-23T13:44:19;49579.13;;;-143.47;55.72
35121;BME280;21297;52.008;4.576;2023-05-23T13:47:09;49531.94;;;-143.47;55.50
35121;BME280;21297;52.008;4.576;2023-05-23T13:49:56;49482.75;;;-143.47;55.67
35121;BME280;21297;52.008;4.576;2023-05-23T13:52:41;49600.75;;;-143.47;54.25
35121;BME280;21297;52.008;4.576;2023-05-23T13:55:27;49583.06;;;-143.47;54.26
35121;BME280;21297;52.008;4.576;2023-05-23T13:58:14;49646.00;;;-143.47;56.16
35121;BME280;21297;52.008;4.576;2023-05-23T14:01:01;49675.50;;;-143.47;53.72
35121;BME280;21297;52.008;4.576;2023-05-23T14:03:47;49695.16;;;-143.47;53.18
35121;BME280;21297;52.008;4.576;2023-05-23T14:06:33;49677.47;;;-143.47;52.08
35121;BME280;21297;52.008;4.576;2023-05-23T14:09:18;49634.19;;;-143.47;51.97
35121;BME280;21297;52.008;4.576;2023-05-23T14:12:05;49636.16;;;-143.47;52.24
35121;BME280;21297;52.008;4.576;2023-05-23T14:14:51;49594.88;;;-143.47;51.97
35121;BME280;21297;52.008;4.576;2023-05-23T14:17:37;49699.09;;;-143.47;50.71
35121;BME280;21297;52.008;4.576;2023-05-23T14:20:23;49590.94;;;-143.47;53.70
35121;BME280;21297;52.008;4.576;2023-05-23T14:23:09;49551.59;;;-143.47;52.26
35121;BME280;21297;52.008;4.576;2023-05-23T14:25:54;49528.00;;;-143.47;52.34
35121;BME280;21297;52.008;4.576;2023-05-23T14:28:40;49600.75;;;-143.47;51.31
35121;BME280;21297;52.008;4.576;2023-05-23T14:31:26;49596.84;;;-143.47;50.69